sensor_id;sensor_type;location;lat;lon;timestamp;temperature;humidity
45807;DHT22;31507;51.494;7.518;2024-03-02T00:00:57;7.50;26.10
45807;DHT22;31507;51.494;7.518;2024-03-02T00:03:23;7.50;24.20
45807;DHT22;31507;51.494;7.518;2024-03-02T00:05:51;7.60;22.00
45807;DHT22;31507;51.494;7.518;2024-03-02T00:08:19;7.50;21.00
45807;DHT22;31507;51.494;7.518;2024-03-02T00:10:47;7.40;24.00
45807;DHT22;31507;51.494;7.518;2024-03-02T00:13:13;7.50;19.90
45807;DHT22;31507;51.494;7.518;2024-03-02T00:18:09;7.50;18.00
45807;DHT22;31507;51.494;7.518;2024-03-02T00:20:35;7.50;16.00
45807;DHT22;31507;51.494;7.518;2024-03-02T00:23:05;7.60;15.80
45807;DHT22;31507;51.494;7.518;2024-03-02T00:26:12;7.60;15.20
45807;DHT22;31507;51.494;7.518;2024-03-02T00:28:23;7.60;15.20
45807;DHT22;31507;51.494;7.518;2024-03-02T00:30:51;7.50;16.70
45807;DHT22;31507;51.494;7.518;2024-03-02T00:33:18;7.40;18.60
45807;DHT22;31507;51.494;7.518;2024-03-02T00:35:45;7.40;21.30
45807;DHT22;31507;51.494;7.518;2024-03-02T00:38:10;7.40;20.30
45807;DHT22;31507;51.494;7.518;2024-03-02T00:40:36;7.40;20.50
45807;DHT22;31507;51.494;7.518;2024-03-02T00:43:01;7.50;15.90
45807;DHT22;31507;51.494;7.518;2024-03-02T00:45:28;7.60;14.10
45807;DHT22;31507;51.494;7.518;2024-03-02T00:47:54;7.60;12.30
45807;DHT22;31507;51.494;7.518;2024-03-02T00:50:19;7.60;11.10
45807;DHT22;31507;51.494;7.518;2024-03-02T00:52:45;7.60;11.20
45807;DHT22;31507;51.494;7.518;2024-03-02T00:55:13;7.60;10.90
45807;DHT22;31507;51.494;7.518;2024-03-02T00:57:39;7.60;10.50
45807;DHT22;31507;51.494;7.518;2024-03-02T01:00:05;7.60;8.30
45807;DHT22;31507;51.494;7.518;2024-03-02T01:02:35;7.60;9.30
45807;DHT22;31507;51.494;7.518;2024-03-02T01:05:00;7.60;9.40
45807;DHT22;31507;51.494;7.518;2024-03-02T01:07:26;7.50;10.60
45807;DHT22;31507;51.494;7.518;2024-03-02T01:09:51;7.60;11.80
45807;DHT22;31507;51.494;7.518;2024-03-02T01:12:17;7.50;11.00
45807;DHT22;31507;51.494;7.518;2024-03-02T01:14:42;7.60;10.20
45807;DHT22;31507;51.494;7.518;2024-03-02T01:17:08;7.50;10.40
45807;DHT22;31507;51.494;7.518;2024-03-02T01:19:33;7.50;8.80
45807;DHT22;31507;51.494;7.518;2024-03-02T01:21:59;7.50;8.10
45807;DHT22;31507;51.494;7.518;2024-03-02T01:24:24;7.50;6.90
45807;DHT22;31507;51.494;7.518;2024-03-02T01:26:50;7.60;7.30
45807;DHT22;31507;51.494;7.518;2024-03-02T01:29:16;7.60;5.80
45807;DHT22;31507;51.494;7.518;2024-03-02T01:31:41;7.60;5.70
45807;DHT22;31507;51.494;7.518;2024-03-02T01:34:07;7.60;4.80
45807;DHT22;31507;51.494;7.518;2024-03-02T01:36:33;7.50;5.80
45807;DHT22;31507;51.494;7.518;2024-03-02T01:38:59;7.60;4.20
45807;DHT22;31507;51.494;7.518;2024-03-02T01:41:24;7.60;2.70
45807;DHT22;31507;51.494;7.518;2024-03-02T01:43:50;7.60;3.40
45807;DHT22;31507;51.494;7.518;2024-03-02T01:46:15;7.50;4.10
45807;DHT22;31507;51.494;7.518;2024-03-02T01:48:41;7.60;1.50
45807;DHT22;31507;51.494;7.518;2024-03-02T01:51:06;7.60;1.00
45807;DHT22;31507;51.494;7.518;2024-03-02T01:53:32;7.70;1.00
45807;DHT22;31507;51.494;7.518;2024-03-02T01:55:58;7.70;1.00
45807;DHT22;31507;51.494;7.518;2024-03-02T01:58:23;7.70;1.00
45807;DHT22;31507;51.494;7.518;2024-03-02T02:00:49;7.80;1.00
45807;DHT22;31507;51.494;7.518;2024-03-02T02:03:15;7.90;1.00
45807;DHT22;31507;51.494;7.518;2024-03-02T02:05:42;7.90;1.00
45807;DHT22;31507;51.494;7.518;2024-03-02T02:08:07;8.00;1.00
45807;DHT22;31507;51.494;7.518;2024-03-02T02:10:33;7.90;1.00
45807;DHT22;31507;51.494;7.518;2024-03-02T02:12:58;8.00;1.00
45807;DHT22;31507;51.494;7.518;2024-03-02T02:15:27;8.00;1.00
45807;DHT22;31507;51.494;7.518;2024-03-02T02:17:53;8.10;1.00
45807;DHT22;31507;51.494;7.518;2024-03-02T02:20:19;8.10;1.00
45807;DHT22;31507;51.494;7.518;2024-03-02T02:22:57;8.10;1.00
45807;DHT22;31507;51.494;7.518;2024-03-02T02:25:23;8.20;1.00
45807;DHT22;31507;51.494;7.518;2024-03-02T02:27:49;8.10;1.00
45807;DHT22;31507;51.494;7.518;2024-03-02T02:30:19;8.10;1.00
45807;DHT22;31507;51.494;7.518;2024-03-02T02:32:45;8.10;1.00
45807;DHT22;31507;51.494;7.518;2024-03-02T02:35:10;8.00;1.00
45807;DHT22;31507;51.494;7.518;2024-03-02T02:37:36;8.00;1.00
45807;DHT22;31507;51.494;7.518;2024-03-02T02:40:02;8.00;1.00
45807;DHT22;31507;51.494;7.518;2024-03-02T02:42:27;8.00;1.00
45807;DHT22;31507;51.494;7.518;2024-03-02T02:44:53;8.00;1.00
45807;DHT22;31507;51.494;7.518;2024-03-02T02:47:18;7.90;1.00
45807;DHT22;31507;51.494;7.518;2024-03-02T02:49:43;7.90;1.00
45807;DHT22;31507;51.494;7.518;2024-03-02T02:52:09;7.90;1.00
45807;DHT22;31507;51.494;7.518;2024-03-02T02:54:36;7.90;1.00
45807;DHT22;31507;51.494;7.518;2024-03-02T02:57:02;7.90;1.00
45807;DHT22;31507;51.494;7.518;2024-03-02T02:59:28;7.90;1.00
45807;DHT22;31507;51.494;7.518;2024-03-02T03:01:54;7.90;1.00
45807;DHT22;31507;51.494;7.518;2024-03-02T03:04:19;7.80;1.00
45807;DHT22;31507;51.494;7.518;2024-03-02T03:06:45;7.90;1.00
45807;DHT22;31507;51.494;7.518;2024-03-02T03:09:11;7.80;1.00
45807;DHT22;31507;51.494;7.518;2024-03-02T03:11:37;7.80;1.00
45807;DHT22;31507;51.494;7.518;2024-03-02T03:14:02;7.70;1.00
45807;DHT22;31507;51.494;7.518;2024-03-02T03:16:28;7.70;1.00
45807;DHT22;31507;51.494;7.518;2024-03-02T03:18:53;7.70;1.00
45807;DHT22;31507;51.494;7.518;2024-03-02T03:21:19;7.60;1.00
45807;DHT22;31507;51.494;7.518;2024-03-02T03:23:44;7.60;1.00
45807;DHT22;31507;51.494;7.518;2024-03-02T03:26:10;7.60;1.00
45807;DHT22;31507;51.494;7.518;2024-03-02T03:28:36;7.50;1.00
45807;DHT22;31507;51.494;7.518;2024-03-02T03:31:01;7.50;1.00
45807;DHT22;31507;51.494;7.518;2024-03-02T03:33:27;7.50;1.00
45807;DHT22;31507;51.494;7.518;2024-03-02T03:35:53;7.40;1.00
45807;DHT22;31507;51.494;7.518;2024-03-02T03:38:18;7.50;1.00
45807;DHT22;31507;51.494;7.518;2024-03-02T03:40:44;7.50;1.00
45807;DHT22;31507;51.494;7.518;2024-03-02T03:43:10;7.50;1.00
45807;DHT22;31507;51.494;7.518;2024-03-02T03:45:35;7.40;1.00
45807;DHT22;31507;51.494;7.518;2024-03-02T03:48:02;7.40;1.00
45807;DHT22;31507;51.494;7.518;2024-03-02T03:50:27;7.40;1.00
45807;DHT22;31507;51.494;7.518;2024-03-02T03:52:53;7.40;1.00
45807;DHT22;31507;51.494;7.518;2024-03-02T03:55:18;7.40;1.00
45807;DHT22;31507;51.494;7.518;2024-03-02T03:57:44;7.40;1.00
45807;DHT22;31507;51.494;7.518;2024-03-02T04:00:09;7.40;1.00
45807;DHT22;31507;51.494;7.518;2024-03-02T04:02:35;7.40;1.00
45807;DHT22;31507;51.494;7.518;2024-03-02T04:05:01;7.40;1.00
45807;DHT22;31507;51.494;7.518;2024-03-02T04:07:30;7.50;1.00
45807;DHT22;31507;51.494;7.518;2024-03-02T04:09:55;7.50;1.00
45807;DHT22;31507;51.494;7.518;2024-03-02T04:12:21;7.50;1.00
45807;DHT22;31507;51.494;7.518;2024-03-02T04:14:47;7.60;1.00
45807;DHT22;31507;51.494;7.518;2024-03-02T04:17:12;7.70;1.00
45807;DHT22;31507;51.494;7.518;2024-03-02T04:19:38;7.80;1.00
45807;DHT22;31507;51.494;7.518;2024-03-02T04:22:04;7.80;1.00
45807;DHT22;31507;51.494;7.518;2024-03-02T04:24:29;7.70;1.00
45807;DHT22;31507;51.494;7.518;2024-03-02T04:26:55;7.60;1.00
45807;DHT22;31507;51.494;7.518;2024-03-02T04:29:21;7.60;1.00
45807;DHT22;31507;51.494;7.518;2024-03-02T04:31:46;7.60;1.00
45807;DHT22;31507;51.494;7.518;2024-03-02T04:34:12;7.50;1.00
45807;DHT22;31507;51.494;7.518;2024-03-02T04:36:37;7.60;1.00
45807;DHT22;31507;51.494;7.518;2024-03-02T04:39:03;7.60;1.00
45807;DHT22;31507;51.494;7.518;2024-03-02T04:41:28;7.60;1.00
45807;DHT22;31507;51.494;7.518;2024-03-02T04:43:54;7.60;1.00
45807;DHT22;31507;51.494;7.518;2024-03-02T04:46:19;7.60;1.00
45807;DHT22;31507;51.494;7.518;2024-03-02T04:48:45;7.60;1.00
45807;DHT22;31507;51.494;7.518;2024-03-02T04:51:10;7.70;1.00
45807;DHT22;31507;51.494;7.518;2024-03-02T04:53:36;7.60;1.00
45807;DHT22;31507;51.494;7.518;2024-03-02T04:56:01;7.60;1.00
45807;DHT22;31507;51.494;7.518;2024-03-02T04:58:45;7.70;1.00
45807;DHT22;31507;51.494;7.518;2024-03-02T05:01:11;7.60;1.00
45807;DHT22;31507;51.494;7.518;2024-03-02T05:03:36;7.60;1.00
45807;DHT22;31507;51.494;7.518;2024-03-02T05:06:02;7.60;1.00
45807;DHT22;31507;51.494;7.518;2024-03-02T05:08:28;7.60;1.00
45807;DHT22;31507;51.494;7.518;2024-03-02T05:10:53;7.60;1.00
45807;DHT22;31507;51.494;7.518;2024-03-02T05:13:19;7.50;1.00
45807;DHT22;31507;51.494;7.518;2024-03-02T05:15:46;7.50;1.00
45807;DHT22;31507;51.494;7.518;2024-03-02T05:18:12;7.40;1.00
45807;DHT22;31507;51.494;7.518;2024-03-02T05:20:37;7.40;1.00
45807;DHT22;31507;51.494;7.518;2024-03-02T05:23:03;7.40;1.00
45807;DHT22;31507;51.494;7.518;2024-03-02T05:25:28;7.30;1.40
45807;DHT22;31507;51.494;7.518;2024-03-02T05:27:54;7.20;3.40
45807;DHT22;31507;51.494;7.518;2024-03-02T05:30:19;7.20;6.10
45807;DHT22;31507;51.494;7.518;2024-03-02T05:32:45;7.10;10.20
45807;DHT22;31507;51.494;7.518;2024-03-02T05:35:10;7.10;9.40
45807;DHT22;31507;51.494;7.518;2024-03-02T05:37:38;7.10;11.30
45807;DHT22;31507;51.494;7.518;2024-03-02T05:40:04;7.10;13.20
45807;DHT22;31507;51.494;7.518;2024-03-02T05:42:31;7.00;14.60
45807;DHT22;31507;51.494;7.518;2024-03-02T05:44:56;6.90;15.00
45807;DHT22;31507;51.494;7.518;2024-03-02T05:47:22;6.90;17.00
45807;DHT22;31507;51.494;7.518;2024-03-02T05:49:47;6.90;19.60
45807;DHT22;31507;51.494;7.518;2024-03-02T05:52:16;6.90;17.40
45807;DHT22;31507;51.494;7.518;2024-03-02T05:54:41;6.90;21.00
45807;DHT22;31507;51.494;7.518;2024-03-02T05:57:07;6.80;22.10
45807;DHT22;31507;51.494;7.518;2024-03-02T06:00:08;6.80;21.30
45807;DHT22;31507;51.494;7.518;2024-03-02T06:02:33;6.80;24.00
45807;DHT22;31507;51.494;7.518;2024-03-02T06:05:00;6.80;22.00
45807;DHT22;31507;51.494;7.518;2024-03-02T06:07:25;6.80;23.90
45807;DHT22;31507;51.494;7.518;2024-03-02T06:09:51;6.80;24.40
45807;DHT22;31507;51.494;7.518;2024-03-02T06:12:18;6.90;23.60
45807;DHT22;31507;51.494;7.518;2024-03-02T06:14:43;6.90;22.70
45807;DHT22;31507;51.494;7.518;2024-03-02T06:17:09;6.80;22.70
45807;DHT22;31507;51.494;7.518;2024-03-02T06:19:34;6.80;24.20
45807;DHT22;31507;51.494;7.518;2024-03-02T06:22:00;6.80;23.60
45807;DHT22;31507;51.494;7.518;2024-03-02T06:24:25;6.80;25.50
45807;DHT22;31507;51.494;7.518;2024-03-02T06:26:51;6.70;28.10
45807;DHT22;31507;51.494;7.518;2024-03-02T06:29:17;6.70;28.40
45807;DHT22;31507;51.494;7.518;2024-03-02T06:31:42;6.80;29.30
45807;DHT22;31507;51.494;7.518;2024-03-02T06:34:08;6.80;28.20
45807;DHT22;31507;51.494;7.518;2024-03-02T06:36:34;6.80;29.30
45807;DHT22;31507;51.494;7.518;2024-03-02T06:38:59;6.80;28.50
45807;DHT22;31507;51.494;7.518;2024-03-02T06:41:25;6.80;29.30
45807;DHT22;31507;51.494;7.518;2024-03-02T06:43:52;6.80;29.30
45807;DHT22;31507;51.494;7.518;2024-03-02T06:46:25;6.80;29.00
45807;DHT22;31507;51.494;7.518;2024-03-02T06:48:50;6.80;28.70
45807;DHT22;31507;51.494;7.518;2024-03-02T06:51:16;6.80;28.90
45807;DHT22;31507;51.494;7.518;2024-03-02T06:53:41;6.90;30.40
45807;DHT22;31507;51.494;7.518;2024-03-02T06:56:07;6.80;31.80
45807;DHT22;31507;51.494;7.518;2024-03-02T06:58:33;6.90;29.30
45807;DHT22;31507;51.494;7.518;2024-03-02T07:00:58;7.00;26.60
45807;DHT22;31507;51.494;7.518;2024-03-02T07:03:25;7.00;25.60
45807;DHT22;31507;51.494;7.518;2024-03-02T07:05:51;7.10;24.50
45807;DHT22;31507;51.494;7.518;2024-03-02T07:08:16;7.10;23.20
45807;DHT22;31507;51.494;7.518;2024-03-02T07:10:42;7.10;23.20
45807;DHT22;31507;51.494;7.518;2024-03-02T07:13:07;7.20;22.30
45807;DHT22;31507;51.494;7.518;2024-03-02T07:15:33;7.20;23.40
45807;DHT22;31507;51.494;7.518;2024-03-02T07:18:19;7.10;23.80
45807;DHT22;31507;51.494;7.518;2024-03-02T07:20:45;7.20;21.00
45807;DHT22;31507;51.494;7.518;2024-03-02T07:23:10;7.30;19.50
45807;DHT22;31507;51.494;7.518;2024-03-02T07:25:36;7.40;16.10
45807;DHT22;31507;51.494;7.518;2024-03-02T07:28:01;7.50;14.50
45807;DHT22;31507;51.494;7.518;2024-03-02T07:30:28;7.50;14.80
45807;DHT22;31507;51.494;7.518;2024-03-02T07:32:53;7.60;14.90
45807;DHT22;31507;51.494;7.518;2024-03-02T07:35:19;7.60;10.50
45807;DHT22;31507;51.494;7.518;2024-03-02T07:37:44;7.70;9.10
45807;DHT22;31507;51.494;7.518;2024-03-02T07:40:10;7.80;5.90
45807;DHT22;31507;51.494;7.518;2024-03-02T07:42:39;7.80;7.30
45807;DHT22;31507;51.494;7.518;2024-03-02T07:45:05;7.90;6.90
45807;DHT22;31507;51.494;7.518;2024-03-02T07:47:33;8.00;5.40
45807;DHT22;31507;51.494;7.518;2024-03-02T07:49:58;8.10;1.50
45807;DHT22;31507;51.494;7.518;2024-03-02T07:52:24;8.30;1.00
45807;DHT22;31507;51.494;7.518;2024-03-02T07:54:49;8.50;1.00
45807;DHT22;31507;51.494;7.518;2024-03-02T07:57:14;8.60;1.00
45807;DHT22;31507;51.494;7.518;2024-03-02T07:59:40;8.80;1.00
45807;DHT22;31507;51.494;7.518;2024-03-02T08:02:06;8.90;1.00
45807;DHT22;31507;51.494;7.518;2024-03-02T08:04:32;9.10;1.00
45807;DHT22;31507;51.494;7.518;2024-03-02T08:06:57;9.20;1.00
45807;DHT22;31507;51.494;7.518;2024-03-02T08:09:23;9.30;1.00
45807;DHT22;31507;51.494;7.518;2024-03-02T08:11:48;9.40;1.00
45807;DHT22;31507;51.494;7.518;2024-03-02T08:14:14;9.50;1.00
45807;DHT22;31507;51.494;7.518;2024-03-02T08:16:40;9.50;1.00
45807;DHT22;31507;51.494;7.518;2024-03-02T08:19:05;9.60;1.00
45807;DHT22;31507;51.494;7.518;2024-03-02T08:21:31;9.70;1.00
45807;DHT22;31507;51.494;7.518;2024-03-02T08:23:57;9.90;1.00
45807;DHT22;31507;51.494;7.518;2024-03-02T08:26:23;9.90;1.00
45807;DHT22;31507;51.494;7.518;2024-03-02T08:28:49;10.00;1.00
45807;DHT22;31507;51.494;7.518;2024-03-02T08:31:14;10.10;1.00
45807;DHT22;31507;51.494;7.518;2024-03-02T08:33:40;10.20;1.00
45807;DHT22;31507;51.494;7.518;2024-03-02T08:36:06;10.30;1.00
45807;DHT22;31507;51.494;7.518;2024-03-02T08:38:31;10.40;1.00
45807;DHT22;31507;51.494;7.518;2024-03-02T08:40:57;10.50;1.00
45807;DHT22;31507;51.494;7.518;2024-03-02T08:43:22;10.50;1.00
45807;DHT22;31507;51.494;7.518;2024-03-02T08:45:48;10.60;1.00
45807;DHT22;31507;51.494;7.518;2024-03-02T08:48:13;10.70;1.00
45807;DHT22;31507;51.494;7.518;2024-03-02T08:50:39;10.80;1.00
45807;DHT22;31507;51.494;7.518;2024-03-02T08:53:04;11.10;1.00
45807;DHT22;31507;51.494;7.518;2024-03-02T08:55:30;11.20;1.00
45807;DHT22;31507;51.494;7.518;2024-03-02T08:57:56;11.20;1.00
45807;DHT22;31507;51.494;7.518;2024-03-02T09:00:22;11.40;1.00
45807;DHT22;31507;51.494;7.518;2024-03-02T09:02:50;11.40;1.00
45807;DHT22;31507;51.494;7.518;2024-03-02T09:05:15;11.50;1.00
45807;DHT22;31507;51.494;7.518;2024-03-02T09:07:41;11.80;1.00
45807;DHT22;31507;51.494;7.518;2024-03-02T09:10:07;11.90;1.00
45807;DHT22;31507;51.494;7.518;2024-03-02T09:12:33;12.00;1.00
45807;DHT22;31507;51.494;7.518;2024-03-02T09:14:59;12.10;1.00
45807;DHT22;31507;51.494;7.518;2024-03-02T09:17:25;12.10;1.00
45807;DHT22;31507;51.494;7.518;2024-03-02T09:19:50;12.20;1.00
45807;DHT22;31507;51.494;7.518;2024-03-02T09:22:19;12.20;1.00
45807;DHT22;31507;51.494;7.518;2024-03-02T09:24:45;12.30;1.00
45807;DHT22;31507;51.494;7.518;2024-03-02T09:27:10;12.60;1.00
45807;DHT22;31507;51.494;7.518;2024-03-02T09:29:36;12.70;1.00
45807;DHT22;31507;51.494;7.518;2024-03-02T09:32:01;12.90;1.00
45807;DHT22;31507;51.494;7.518;2024-03-02T09:34:27;12.90;1.00
45807;DHT22;31507;51.494;7.518;2024-03-02T09:36:52;13.00;1.00
45807;DHT22;31507;51.494;7.518;2024-03-02T09:39:18;13.50;1.00
45807;DHT22;31507;51.494;7.518;2024-03-02T09:41:43;13.60;1.00
45807;DHT22;31507;51.494;7.518;2024-03-02T09:44:09;13.60;1.00
45807;DHT22;31507;51.494;7.518;2024-03-02T09:46:35;13.50;1.00
45807;DHT22;31507;51.494;7.518;2024-03-02T09:49:02;13.70;1.00
45807;DHT22;31507;51.494;7.518;2024-03-02T09:51:27;13.80;1.00
45807;DHT22;31507;51.494;7.518;2024-03-02T09:53:54;14.00;1.00
45807;DHT22;31507;51.494;7.518;2024-03-02T09:56:20;14.10;1.00
45807;DHT22;31507;51.494;7.518;2024-03-02T09:58:46;14.20;1.00
45807;DHT22;31507;51.494;7.518;2024-03-02T10:01:12;14.40;1.00
45807;DHT22;31507;51.494;7.518;2024-03-02T10:03:37;14.40;1.00
45807;DHT22;31507;51.494;7.518;2024-03-02T10:08:44;15.00;1.00
45807;DHT22;31507;51.494;7.518;2024-03-02T10:11:09;15.40;1.00
45807;DHT22;31507;51.494;7.518;2024-03-02T10:13:36;16.00;1.00
45807;DHT22;31507;51.494;7.518;2024-03-02T10:16:11;16.10;1.00
45807;DHT22;31507;51.494;7.518;2024-03-02T10:18:37;16.40;1.00
45807;DHT22;31507;51.494;7.518;2024-03-02T10:21:14;16.60;1.00
45807;DHT22;31507;51.494;7.518;2024-03-02T10:23:40;16.00;1.00
45807;DHT22;31507;51.494;7.518;2024-03-02T10:26:18;15.80;1.00
45807;DHT22;31507;51.494;7.518;2024-03-02T10:28:46;15.70;1.00
45807;DHT22;31507;51.494;7.518;2024-03-02T10:31:12;15.30;1.00
45807;DHT22;31507;51.494;7.518;2024-03-02T10:33:37;15.40;1.00
45807;DHT22;31507;51.494;7.518;2024-03-02T10:36:03;15.50;1.00
45807;DHT22;31507;51.494;7.518;2024-03-02T10:38:29;15.50;1.00
45807;DHT22;31507;51.494;7.518;2024-03-02T10:40:56;15.70;1.00
45807;DHT22;31507;51.494;7.518;2024-03-02T10:43:24;15.70;1.00
45807;DHT22;31507;51.494;7.518;2024-03-02T10:45:49;16.20;1.00
45807;DHT22;31507;51.494;7.518;2024-03-02T10:48:16;16.30;1.00
45807;DHT22;31507;51.494;7.518;2024-03-02T10:50:41;16.60;1.00
45807;DHT22;31507;51.494;7.518;2024-03-02T10:53:07;16.70;1.00
45807;DHT22;31507;51.494;7.518;2024-03-02T10:55:32;16.80;1.00
45807;DHT22;31507;51.494;7.518;2024-03-02T10:57:58;16.30;1.00
45807;DHT22;31507;51.494;7.518;2024-03-02T11:00:26;16.40;1.00
45807;DHT22;31507;51.494;7.518;2024-03-02T11:02:56;16.40;1.00
45807;DHT22;31507;51.494;7.518;2024-03-02T11:05:29;16.30;1.00
45807;DHT22;31507;51.494;7.518;2024-03-02T11:07:58;16.30;1.00
45807;DHT22;31507;51.494;7.518;2024-03-02T11:10:26;16.40;1.00
45807;DHT22;31507;51.494;7.518;2024-03-02T11:12:53;16.60;1.00
45807;DHT22;31507;51.494;7.518;2024-03-02T11:15:21;16.70;1.00
45807;DHT22;31507;51.494;7.518;2024-03-02T11:17:49;16.50;1.00
45807;DHT22;31507;51.494;7.518;2024-03-02T11:20:15;16.60;1.00
45807;DHT22;31507;51.494;7.518;2024-03-02T11:22:41;16.50;1.00
45807;DHT22;31507;51.494;7.518;2024-03-02T11:25:06;16.60;1.00
45807;DHT22;31507;51.494;7.518;2024-03-02T11:32:58;17.10;1.00
45807;DHT22;31507;51.494;7.518;2024-03-02T11:35:27;16.80;1.00
45807;DHT22;31507;51.494;7.518;2024-03-02T11:37:55;16.90;1.00
45807;DHT22;31507;51.494;7.518;2024-03-02T11:40:27;17.00;1.00
45807;DHT22;31507;51.494;7.518;2024-03-02T11:42:52;17.20;1.00
45807;DHT22;31507;51.494;7.518;2024-03-02T11:45:24;17.30;1.00
45807;DHT22;31507;51.494;7.518;2024-03-02T11:47:50;17.60;1.00
45807;DHT22;31507;51.494;7.518;2024-03-02T11:50:15;17.40;1.00
45807;DHT22;31507;51.494;7.518;2024-03-02T11:52:42;17.30;1.00
45807;DHT22;31507;51.494;7.518;2024-03-02T11:55:07;17.30;1.00
45807;DHT22;31507;51.494;7.518;2024-03-02T11:57:34;16.90;1.00
45807;DHT22;31507;51.494;7.518;2024-03-02T12:00:00;16.60;1.00
45807;DHT22;31507;51.494;7.518;2024-03-02T12:02:28;16.90;1.00
45807;DHT22;31507;51.494;7.518;2024-03-02T12:04:54;17.00;1.00
45807;DHT22;31507;51.494;7.518;2024-03-02T12:07:21;16.80;1.00
45807;DHT22;31507;51.494;7.518;2024-03-02T12:09:48;16.40;1.00
45807;DHT22;31507;51.494;7.518;2024-03-02T12:12:14;16.40;1.00
45807;DHT22;31507;51.494;7.518;2024-03-02T12:14:52;16.40;1.00
45807;DHT22;31507;51.494;7.518;2024-03-02T12:17:18;16.10;1.00
45807;DHT22;31507;51.494;7.518;2024-03-02T12:19:44;16.10;1.00
45807;DHT22;31507;51.494;7.518;2024-03-02T12:22:10;16.20;1.00
45807;DHT22;31507;51.494;7.518;2024-03-02T12:24:35;16.70;1.00
45807;DHT22;31507;51.494;7.518;2024-03-02T12:27:02;17.10;1.00
45807;DHT22;31507;51.494;7.518;2024-03-02T12:29:28;17.10;1.00
45807;DHT22;31507;51.494;7.518;2024-03-02T12:31:54;16.90;1.00
45807;DHT22;31507;51.494;7.518;2024-03-02T12:34:20;16.40;1.00
45807;DHT22;31507;51.494;7.518;2024-03-02T12:36:46;16.10;1.00
45807;DHT22;31507;51.494;7.518;2024-03-02T12:39:17;16.30;1.00
45807;DHT22;31507;51.494;7.518;2024-03-02T12:41:43;16.30;1.00
45807;DHT22;31507;51.494;7.518;2024-03-02T12:44:09;15.80;1.00
45807;DHT22;31507;51.494;7.518;2024-03-02T12:46:35;15.50;1.00
45807;DHT22;31507;51.494;7.518;2024-03-02T12:49:11;15.20;1.00
45807;DHT22;31507;51.494;7.518;2024-03-02T12:51:37;15.00;1.00
45807;DHT22;31507;51.494;7.518;2024-03-02T12:54:09;14.80;1.00
45807;DHT22;31507;51.494;7.518;2024-03-02T12:56:35;15.20;1.00
45807;DHT22;31507;51.494;7.518;2024-03-02T12:59:00;15.40;1.00
45807;DHT22;31507;51.494;7.518;2024-03-02T13:01:26;15.80;1.00
45807;DHT22;31507;51.494;7.518;2024-03-02T13:03:52;16.10;1.00
45807;DHT22;31507;51.494;7.518;2024-03-02T13:06:18;15.70;1.00
45807;DHT22;31507;51.494;7.518;2024-03-02T13:08:47;15.40;1.00
45807;DHT22;31507;51.494;7.518;2024-03-02T13:11:13;15.30;1.00
45807;DHT22;31507;51.494;7.518;2024-03-02T13:13:39;15.10;1.00
45807;DHT22;31507;51.494;7.518;2024-03-02T13:16:08;14.90;1.00
45807;DHT22;31507;51.494;7.518;2024-03-02T13:18:33;14.60;1.00
45807;DHT22;31507;51.494;7.518;2024-03-02T13:20:59;14.30;1.00
45807;DHT22;31507;51.494;7.518;2024-03-02T13:23:24;14.20;1.00
45807;DHT22;31507;51.494;7.518;2024-03-02T13:25:50;14.10;1.00
45807;DHT22;31507;51.494;7.518;2024-03-02T13:28:15;14.10;1.00
45807;DHT22;31507;51.494;7.518;2024-03-02T13:30:41;14.00;1.00
45807;DHT22;31507;51.494;7.518;2024-03-02T13:33:06;13.90;1.00
45807;DHT22;31507;51.494;7.518;2024-03-02T13:35:32;13.80;1.00
45807;DHT22;31507;51.494;7.518;2024-03-02T13:37:57;13.80;1.00
45807;DHT22;31507;51.494;7.518;2024-03-02T13:40:23;13.80;1.00
45807;DHT22;31507;51.494;7.518;2024-03-02T13:42:49;13.80;1.00
45807;DHT22;31507;51.494;7.518;2024-03-02T13:45:16;13.90;1.00
45807;DHT22;31507;51.494;7.518;2024-03-02T13:47:41;13.90;1.00
45807;DHT22;31507;51.494;7.518;2024-03-02T13:50:07;13.80;1.00
45807;DHT22;31507;51.494;7.518;2024-03-02T13:52:32;13.80;1.00
45807;DHT22;31507;51.494;7.518;2024-03-02T13:54:58;13.70;1.00
45807;DHT22;31507;51.494;7.518;2024-03-02T13:57:23;13.70;1.00
45807;DHT22;31507;51.494;7.518;2024-03-02T13:59:49;13.70;1.00
45807;DHT22;31507;51.494;7.518;2024-03-02T14:02:15;13.70;1.00
45807;DHT22;31507;51.494;7.518;2024-03-02T14:04:41;13.70;1.00
45807;DHT22;31507;51.494;7.518;2024-03-02T14:07:06;13.50;1.00
45807;DHT22;31507;51.494;7.518;2024-03-02T14:09:32;13.40;1.00
45807;DHT22;31507;51.494;7.518;2024-03-02T14:11:58;13.50;1.00
45807;DHT22;31507;51.494;7.518;2024-03-02T14:14:26;13.50;1.00
45807;DHT22;31507;51.494;7.518;2024-03-02T14:16:52;13.60;1.00
45807;DHT22;31507;51.494;7.518;2024-03-02T14:19:17;13.60;1.00
45807;DHT22;31507;51.494;7.518;2024-03-02T14:21:43;13.70;1.00
45807;DHT22;31507;51.494;7.518;2024-03-02T14:24:08;13.70;1.00
45807;DHT22;31507;51.494;7.518;2024-03-02T14:26:35;13.70;1.00
45807;DHT22;31507;51.494;7.518;2024-03-02T14:29:00;13.70;1.00
45807;DHT22;31507;51.494;7.518;2024-03-02T14:31:29;13.70;1.00
45807;DHT22;31507;51.494;7.518;2024-03-02T14:33:54;13.60;1.00
45807;DHT22;31507;51.494;7.518;2024-03-02T14:36:20;13.50;1.00
45807;DHT22;31507;51.494;7.518;2024-03-02T14:38:46;13.50;1.00
45807;DHT22;31507;51.494;7.518;2024-03-02T14:41:12;13.60;1.00
45807;DHT22;31507;51.494;7.518;2024-03-02T14:43:38;13.60;1.00
45807;DHT22;31507;51.494;7.518;2024-03-02T14:46:04;13.70;1.00
45807;DHT22;31507;51.494;7.518;2024-03-02T14:48:29;13.80;1.00
45807;DHT22;31507;51.494;7.518;2024-03-02T14:50:55;13.90;1.00
45807;DHT22;31507;51.494;7.518;2024-03-02T14:53:20;14.00;1.00
45807;DHT22;31507;51.494;7.518;2024-03-02T14:55:46;13.90;1.00
45807;DHT22;31507;51.494;7.518;2024-03-02T14:58:11;13.90;1.00
45807;DHT22;31507;51.494;7.518;2024-03-02T15:00:37;14.00;1.00
45807;DHT22;31507;51.494;7.518;2024-03-02T15:03:03;13.90;1.00
45807;DHT22;31507;51.494;7.518;2024-03-02T15:05:30;13.90;1.00
45807;DHT22;31507;51.494;7.518;2024-03-02T15:07:56;13.90;1.00
45807;DHT22;31507;51.494;7.518;2024-03-02T15:10:24;13.90;1.00
45807;DHT22;31507;51.494;7.518;2024-03-02T15:12:50;13.80;1.00
45807;DHT22;31507;51.494;7.518;2024-03-02T15:15:15;13.80;1.00
45807;DHT22;31507;51.494;7.518;2024-03-02T15:17:41;13.80;1.00
45807;DHT22;31507;51.494;7.518;2024-03-02T15:20:07;13.80;1.00
45807;DHT22;31507;51.494;7.518;2024-03-02T15:22:33;13.70;1.00
45807;DHT22;31507;51.494;7.518;2024-03-02T15:24:58;13.70;1.00
45807;DHT22;31507;51.494;7.518;2024-03-02T15:27:24;13.70;1.00
45807;DHT22;31507;51.494;7.518;2024-03-02T15:29:50;13.70;1.00
45807;DHT22;31507;51.494;7.518;2024-03-02T15:32:17;13.70;1.00
45807;DHT22;31507;51.494;7.518;2024-03-02T15:34:43;13.70;1.00
45807;DHT22;31507;51.494;7.518;2024-03-02T15:37:08;13.70;1.00
45807;DHT22;31507;51.494;7.518;2024-03-02T15:39:34;13.70;1.00
45807;DHT22;31507;51.494;7.518;2024-03-02T15:41:59;13.70;1.00
45807;DHT22;31507;51.494;7.518;2024-03-02T15:44:25;13.70;1.00
45807;DHT22;31507;51.494;7.518;2024-03-02T15:46:50;13.70;1.00
45807;DHT22;31507;51.494;7.518;2024-03-02T15:49:16;13.70;1.00
45807;DHT22;31507;51.494;7.518;2024-03-02T15:51:42;13.70;1.00
45807;DHT22;31507;51.494;7.518;2024-03-02T15:54:10;13.70;1.00
45807;DHT22;31507;51.494;7.518;2024-03-02T15:56:35;13.60;1.00